This is the latest recevied weather packets stored in our database for station/object K7CTM. If no packets are shown the sender has not sent any weather packets the latest 10 day(s).
| Time | Temp. | Humidity | Pressure | Rain* | Wind** | Luminosity | Snow |
|---|---|---|---|---|---|---|---|
| 1778130805 | 15° C | 32% | 1019.4 hPa | 0 mm | - | 0 W/m² | - |
| 1778130502 | 15° C | 32% | 1019.6 hPa | 0 mm | - | 0 W/m² | - |
| 1778130198 | 14.44° C | 35% | 1019.7 hPa | 0 mm | - | 0 W/m² | - |
| 1778129895 | 13.89° C | 37% | 1019.7 hPa | 0 mm | - | 0 W/m² | - |
| 1778129592 | 14.44° C | 35% | 1019.8 hPa | 0 mm | - | 0 W/m² | - |
| 1778129289 | 13.89° C | 38% | 1019.8 hPa | 0 mm | - | 0 W/m² | - |
| 1778128986 | 14.44° C | 36% | 1019.8 hPa | 0 mm | - | 0 W/m² | - |
| 1778128681 | 15° C | 35% | 1019.9 hPa | 0 mm | - | 0 W/m² | - |
| 1778128378 | 15° C | 34% | 1019.7 hPa | 0 mm | - | 0 W/m² | - |
| 1778128074 | 15.56° C | 33% | 1019.9 hPa | 0 mm | - | 0 W/m² | - |
| 1778127770 | 16.11° C | 31% | 1020 hPa | 0 mm | - | 0 W/m² | - |
| 1778127468 | 16.11° C | 31% | 1019.7 hPa | 0 mm | - | 0 W/m² | - |
| 1778127164 | 15.56° C | 32% | 1020 hPa | 0 mm | - | 0 W/m² | - |
| 1778126861 | 15.56° C | 33% | 1019.9 hPa | 0 mm | - | 0 W/m² | - |
| 1778126557 | 15.56° C | 34% | 1020 hPa | 0 mm | - | 0 W/m² | - |
| 1778126253 | 15.56° C | 34% | 1020 hPa | 0 mm | - | 0 W/m² | - |
| 1778125949 | 15.56° C | 34% | 1020 hPa | 0 mm | - | 0 W/m² | - |
| 1778125646 | 15.56° C | 34% | 1019.9 hPa | 0 mm | - | 0 W/m² | - |
| 1778125343 | 15.56° C | 34% | 1019.9 hPa | 0 mm | - | 0 W/m² | - |
| 1778125042 | 15.56° C | 34% | 1019.8 hPa | 0 mm | - | 0 W/m² | - |
| 1778124739 | 16.11° C | 33% | 1019.8 hPa | 0 mm | - | 0 W/m² | - |
| 1778124436 | 16.11° C | 33% | 1019.6 hPa | 0 mm | - | 0 W/m² | - |
| 1778124132 | 16.67° C | 33% | 1019.7 hPa | 0 mm | - | 0 W/m² | - |
| 1778123829 | 17.78° C | 31% | 1019.5 hPa | 0 mm | - | 0 W/m² | - |
| 1778123525 | 17.78° C | 31% | 1019.7 hPa | 0 mm | - | 0 W/m² | - |
* Rain latest hour (hover to see other rain measurements)
** Current wind speed in m/s (hover to see current wind gust speed)